sensor_id;sensor_type;location;lat;lon;timestamp;temperature;humidity
7530;DHT22;3806;52.270;10.544;2023-08-20T00:02:16;24.20;99.90
7530;DHT22;3806;52.270;10.544;2023-08-20T00:04:45;24.20;99.90
7530;DHT22;3806;52.270;10.544;2023-08-20T00:07:11;24.10;99.90
7530;DHT22;3806;52.270;10.544;2023-08-20T00:09:37;24.10;99.90
7530;DHT22;3806;52.270;10.544;2023-08-20T00:12:02;24.10;99.90
7530;DHT22;3806;52.270;10.544;2023-08-20T00:17:18;24.10;99.90
7530;DHT22;3806;52.270;10.544;2023-08-20T00:19:45;24.10;99.90
7530;DHT22;3806;52.270;10.544;2023-08-20T00:22:10;24.10;99.90
7530;DHT22;3806;52.270;10.544;2023-08-20T00:24:36;24.00;99.90
7530;DHT22;3806;52.270;10.544;2023-08-20T00:27:02;24.00;99.90
7530;DHT22;3806;52.270;10.544;2023-08-20T00:29:27;24.00;99.90
7530;DHT22;3806;52.270;10.544;2023-08-20T00:31:53;24.00;99.90
7530;DHT22;3806;52.270;10.544;2023-08-20T00:34:18;24.00;99.90
7530;DHT22;3806;52.270;10.544;2023-08-20T00:36:44;24.00;99.90
7530;DHT22;3806;52.270;10.544;2023-08-20T00:39:09;24.00;99.90
7530;DHT22;3806;52.270;10.544;2023-08-20T00:41:35;24.00;99.90
7530;DHT22;3806;52.270;10.544;2023-08-20T00:44:00;24.00;99.90
7530;DHT22;3806;52.270;10.544;2023-08-20T00:46:26;24.00;99.90
7530;DHT22;3806;52.270;10.544;2023-08-20T00:48:51;24.00;99.90
7530;DHT22;3806;52.270;10.544;2023-08-20T00:51:17;24.00;99.90
7530;DHT22;3806;52.270;10.544;2023-08-20T00:53:43;24.00;99.90
7530;DHT22;3806;52.270;10.544;2023-08-20T00:56:09;23.90;99.90
7530;DHT22;3806;52.270;10.544;2023-08-20T00:58:34;23.90;99.90
7530;DHT22;3806;52.270;10.544;2023-08-20T01:01:00;23.90;99.90
7530;DHT22;3806;52.270;10.544;2023-08-20T01:03:25;23.90;99.90
7530;DHT22;3806;52.270;10.544;2023-08-20T01:06:11;23.80;99.90
7530;DHT22;3806;52.270;10.544;2023-08-20T01:08:37;23.80;99.90
7530;DHT22;3806;52.270;10.544;2023-08-20T01:11:19;23.70;99.90
7530;DHT22;3806;52.270;10.544;2023-08-20T01:13:47;23.70;99.90
7530;DHT22;3806;52.270;10.544;2023-08-20T01:16:13;23.70;99.90
7530;DHT22;3806;52.270;10.544;2023-08-20T01:18:38;23.70;99.90
7530;DHT22;3806;52.270;10.544;2023-08-20T01:21:18;23.60;99.90
7530;DHT22;3806;52.270;10.544;2023-08-20T01:29:24;23.60;99.90
7530;DHT22;3806;52.270;10.544;2023-08-20T01:31:51;23.50;99.90
7530;DHT22;3806;52.270;10.544;2023-08-20T01:34:17;23.60;99.90
7530;DHT22;3806;52.270;10.544;2023-08-20T01:36:43;23.60;99.90
7530;DHT22;3806;52.270;10.544;2023-08-20T01:39:08;23.60;99.90
7530;DHT22;3806;52.270;10.544;2023-08-20T01:41:34;23.60;99.90
7530;DHT22;3806;52.270;10.544;2023-08-20T01:43:59;23.60;99.90
7530;DHT22;3806;52.270;10.544;2023-08-20T01:46:25;23.60;99.90
7530;DHT22;3806;52.270;10.544;2023-08-20T01:48:50;23.60;99.90
7530;DHT22;3806;52.270;10.544;2023-08-20T01:51:16;23.70;99.90
7530;DHT22;3806;52.270;10.544;2023-08-20T01:53:41;23.70;99.90
7530;DHT22;3806;52.270;10.544;2023-08-20T01:56:11;23.70;99.90
7530;DHT22;3806;52.270;10.544;2023-08-20T01:58:37;23.60;99.90
7530;DHT22;3806;52.270;10.544;2023-08-20T02:01:02;23.70;99.90
7530;DHT22;3806;52.270;10.544;2023-08-20T02:03:28;23.70;99.90
7530;DHT22;3806;52.270;10.544;2023-08-20T02:05:54;23.70;99.90
7530;DHT22;3806;52.270;10.544;2023-08-20T02:08:20;23.70;99.90
7530;DHT22;3806;52.270;10.544;2023-08-20T02:10:45;23.60;99.90
7530;DHT22;3806;52.270;10.544;2023-08-20T02:13:11;23.60;99.90
7530;DHT22;3806;52.270;10.544;2023-08-20T02:15:36;23.60;99.90
7530;DHT22;3806;52.270;10.544;2023-08-20T02:18:02;23.60;99.90
7530;DHT22;3806;52.270;10.544;2023-08-20T02:20:28;23.60;99.90
7530;DHT22;3806;52.270;10.544;2023-08-20T02:22:54;23.60;99.90
7530;DHT22;3806;52.270;10.544;2023-08-20T02:25:19;23.60;99.90
7530;DHT22;3806;52.270;10.544;2023-08-20T02:27:45;23.50;99.90
7530;DHT22;3806;52.270;10.544;2023-08-20T02:30:11;23.50;99.90
7530;DHT22;3806;52.270;10.544;2023-08-20T02:32:39;23.50;99.90
7530;DHT22;3806;52.270;10.544;2023-08-20T02:35:05;23.40;99.90
7530;DHT22;3806;52.270;10.544;2023-08-20T02:37:31;23.40;99.90
7530;DHT22;3806;52.270;10.544;2023-08-20T02:39:57;23.40;99.90
7530;DHT22;3806;52.270;10.544;2023-08-20T02:42:22;23.40;99.90
7530;DHT22;3806;52.270;10.544;2023-08-20T02:44:48;23.40;99.90
7530;DHT22;3806;52.270;10.544;2023-08-20T02:47:13;23.40;99.90
7530;DHT22;3806;52.270;10.544;2023-08-20T02:49:39;23.40;99.90
7530;DHT22;3806;52.270;10.544;2023-08-20T02:52:04;23.30;99.90
7530;DHT22;3806;52.270;10.544;2023-08-20T02:54:30;23.30;99.90
7530;DHT22;3806;52.270;10.544;2023-08-20T02:56:58;23.30;99.90
7530;DHT22;3806;52.270;10.544;2023-08-20T02:59:23;23.30;99.90
7530;DHT22;3806;52.270;10.544;2023-08-20T03:01:49;23.20;99.90
7530;DHT22;3806;52.270;10.544;2023-08-20T03:04:14;23.20;99.90
7530;DHT22;3806;52.270;10.544;2023-08-20T03:06:40;23.20;99.90
7530;DHT22;3806;52.270;10.544;2023-08-20T03:09:05;23.20;99.90
7530;DHT22;3806;52.270;10.544;2023-08-20T03:11:31;23.20;99.90
7530;DHT22;3806;52.270;10.544;2023-08-20T03:13:56;23.10;99.90
7530;DHT22;3806;52.270;10.544;2023-08-20T03:16:22;23.10;99.90
7530;DHT22;3806;52.270;10.544;2023-08-20T03:18:47;23.10;99.90
7530;DHT22;3806;52.270;10.544;2023-08-20T03:21:13;23.00;99.90
7530;DHT22;3806;52.270;10.544;2023-08-20T03:23:39;23.10;99.90
7530;DHT22;3806;52.270;10.544;2023-08-20T03:26:04;23.00;99.90
7530;DHT22;3806;52.270;10.544;2023-08-20T03:28:30;23.00;99.90
7530;DHT22;3806;52.270;10.544;2023-08-20T03:30:59;22.90;99.90
7530;DHT22;3806;52.270;10.544;2023-08-20T03:33:26;22.90;99.90
7530;DHT22;3806;52.270;10.544;2023-08-20T03:35:51;22.90;99.90
7530;DHT22;3806;52.270;10.544;2023-08-20T03:38:17;22.90;99.90
7530;DHT22;3806;52.270;10.544;2023-08-20T03:40:42;22.80;99.90
7530;DHT22;3806;52.270;10.544;2023-08-20T03:43:08;22.80;99.90
7530;DHT22;3806;52.270;10.544;2023-08-20T03:45:33;22.80;99.90
7530;DHT22;3806;52.270;10.544;2023-08-20T03:47:59;22.80;99.90
7530;DHT22;3806;52.270;10.544;2023-08-20T03:50:25;22.70;99.90
7530;DHT22;3806;52.270;10.544;2023-08-20T03:52:50;22.70;99.90
7530;DHT22;3806;52.270;10.544;2023-08-20T03:55:16;22.70;99.90
7530;DHT22;3806;52.270;10.544;2023-08-20T03:57:42;22.70;99.90
7530;DHT22;3806;52.270;10.544;2023-08-20T04:00:08;22.60;99.90
7530;DHT22;3806;52.270;10.544;2023-08-20T04:02:34;22.60;99.90
7530;DHT22;3806;52.270;10.544;2023-08-20T04:05:00;22.60;99.90
7530;DHT22;3806;52.270;10.544;2023-08-20T04:07:26;22.60;99.90
7530;DHT22;3806;52.270;10.544;2023-08-20T04:09:51;22.60;99.90
7530;DHT22;3806;52.270;10.544;2023-08-20T04:12:17;22.60;99.90
7530;DHT22;3806;52.270;10.544;2023-08-20T04:14:42;22.60;99.90
7530;DHT22;3806;52.270;10.544;2023-08-20T04:17:07;22.60;99.90
7530;DHT22;3806;52.270;10.544;2023-08-20T04:19:33;22.60;99.90
7530;DHT22;3806;52.270;10.544;2023-08-20T04:21:59;22.60;99.90
7530;DHT22;3806;52.270;10.544;2023-08-20T04:24:24;22.60;99.90
7530;DHT22;3806;52.270;10.544;2023-08-20T04:26:49;22.60;99.90
7530;DHT22;3806;52.270;10.544;2023-08-20T04:29:15;22.50;99.90
7530;DHT22;3806;52.270;10.544;2023-08-20T04:31:40;22.50;99.90
7530;DHT22;3806;52.270;10.544;2023-08-20T04:34:06;22.60;99.90
7530;DHT22;3806;52.270;10.544;2023-08-20T04:36:31;22.60;99.90
7530;DHT22;3806;52.270;10.544;2023-08-20T04:38:57;22.60;99.90
7530;DHT22;3806;52.270;10.544;2023-08-20T04:41:22;22.60;99.90
7530;DHT22;3806;52.270;10.544;2023-08-20T04:43:48;22.60;99.90
7530;DHT22;3806;52.270;10.544;2023-08-20T04:46:13;22.70;99.90
7530;DHT22;3806;52.270;10.544;2023-08-20T04:48:40;22.70;99.90
7530;DHT22;3806;52.270;10.544;2023-08-20T04:51:05;22.80;99.90
7530;DHT22;3806;52.270;10.544;2023-08-20T04:53:32;22.80;99.90
7530;DHT22;3806;52.270;10.544;2023-08-20T04:55:58;22.80;99.90
7530;DHT22;3806;52.270;10.544;2023-08-20T04:58:24;22.90;99.90
7530;DHT22;3806;52.270;10.544;2023-08-20T05:00:49;23.00;99.90
7530;DHT22;3806;52.270;10.544;2023-08-20T05:03:15;23.10;99.90
7530;DHT22;3806;52.270;10.544;2023-08-20T05:05:40;23.20;99.90
7530;DHT22;3806;52.270;10.544;2023-08-20T05:08:06;23.30;99.90
7530;DHT22;3806;52.270;10.544;2023-08-20T05:10:35;23.30;99.90
7530;DHT22;3806;52.270;10.544;2023-08-20T05:13:01;23.40;99.90
7530;DHT22;3806;52.270;10.544;2023-08-20T05:15:27;23.50;99.90
7530;DHT22;3806;52.270;10.544;2023-08-20T05:17:52;23.60;99.90
7530;DHT22;3806;52.270;10.544;2023-08-20T05:20:18;23.60;99.90
7530;DHT22;3806;52.270;10.544;2023-08-20T05:22:43;23.70;99.90
7530;DHT22;3806;52.270;10.544;2023-08-20T05:25:09;23.90;99.90
7530;DHT22;3806;52.270;10.544;2023-08-20T05:27:34;24.00;99.90
7530;DHT22;3806;52.270;10.544;2023-08-20T05:30:00;24.10;99.90
7530;DHT22;3806;52.270;10.544;2023-08-20T05:32:25;24.10;99.90
7530;DHT22;3806;52.270;10.544;2023-08-20T05:34:51;24.20;99.90
7530;DHT22;3806;52.270;10.544;2023-08-20T05:37:16;24.30;99.90
7530;DHT22;3806;52.270;10.544;2023-08-20T05:39:43;24.50;99.90
7530;DHT22;3806;52.270;10.544;2023-08-20T05:42:09;24.70;99.90
7530;DHT22;3806;52.270;10.544;2023-08-20T05:44:34;25.00;99.90
7530;DHT22;3806;52.270;10.544;2023-08-20T05:47:00;25.10;99.90
7530;DHT22;3806;52.270;10.544;2023-08-20T05:49:26;25.20;99.90
7530;DHT22;3806;52.270;10.544;2023-08-20T05:51:52;25.40;99.90
7530;DHT22;3806;52.270;10.544;2023-08-20T05:54:17;25.50;99.90
7530;DHT22;3806;52.270;10.544;2023-08-20T05:56:43;25.50;99.90
7530;DHT22;3806;52.270;10.544;2023-08-20T05:59:09;25.40;99.90
7530;DHT22;3806;52.270;10.544;2023-08-20T06:01:34;25.40;99.90
7530;DHT22;3806;52.270;10.544;2023-08-20T06:03:59;25.30;99.90
7530;DHT22;3806;52.270;10.544;2023-08-20T06:06:26;25.30;99.90
7530;DHT22;3806;52.270;10.544;2023-08-20T06:08:51;25.40;99.90
7530;DHT22;3806;52.270;10.544;2023-08-20T06:11:17;25.60;99.90
7530;DHT22;3806;52.270;10.544;2023-08-20T06:13:43;25.80;99.90
7530;DHT22;3806;52.270;10.544;2023-08-20T06:16:08;25.90;99.90
7530;DHT22;3806;52.270;10.544;2023-08-20T06:18:34;25.90;99.90
7530;DHT22;3806;52.270;10.544;2023-08-20T06:20:59;26.00;99.90
7530;DHT22;3806;52.270;10.544;2023-08-20T06:23:25;26.00;99.90
7530;DHT22;3806;52.270;10.544;2023-08-20T06:25:51;26.00;99.90
7530;DHT22;3806;52.270;10.544;2023-08-20T06:28:16;26.40;99.90
7530;DHT22;3806;52.270;10.544;2023-08-20T06:30:42;27.30;99.90
7530;DHT22;3806;52.270;10.544;2023-08-20T06:33:08;27.90;99.90
7530;DHT22;3806;52.270;10.544;2023-08-20T06:35:34;29.10;99.90
7530;DHT22;3806;52.270;10.544;2023-08-20T06:37:59;30.50;96.10
7530;DHT22;3806;52.270;10.544;2023-08-20T06:40:25;31.20;93.40
7530;DHT22;3806;52.270;10.544;2023-08-20T06:42:50;31.90;92.10
7530;DHT22;3806;52.270;10.544;2023-08-20T06:45:16;33.40;86.30
7530;DHT22;3806;52.270;10.544;2023-08-20T06:47:42;34.90;75.80
7530;DHT22;3806;52.270;10.544;2023-08-20T06:50:07;36.60;62.50
7530;DHT22;3806;52.270;10.544;2023-08-20T06:52:33;37.70;55.00
7530;DHT22;3806;52.270;10.544;2023-08-20T06:54:59;39.00;51.30
7530;DHT22;3806;52.270;10.544;2023-08-20T06:57:24;40.30;46.10
7530;DHT22;3806;52.270;10.544;2023-08-20T06:59:50;41.20;43.70
7530;DHT22;3806;52.270;10.544;2023-08-20T07:02:16;41.20;42.40
7530;DHT22;3806;52.270;10.544;2023-08-20T07:04:41;40.70;42.30
7530;DHT22;3806;52.270;10.544;2023-08-20T07:07:07;40.00;43.00
7530;DHT22;3806;52.270;10.544;2023-08-20T07:09:33;39.40;43.80
7530;DHT22;3806;52.270;10.544;2023-08-20T07:11:59;38.80;44.70
7530;DHT22;3806;52.270;10.544;2023-08-20T07:14:24;38.20;45.00
7530;DHT22;3806;52.270;10.544;2023-08-20T07:16:50;37.70;45.90
7530;DHT22;3806;52.270;10.544;2023-08-20T07:19:15;37.30;46.30
7530;DHT22;3806;52.270;10.544;2023-08-20T07:21:41;36.70;45.90
7530;DHT22;3806;52.270;10.544;2023-08-20T07:24:07;36.10;47.40
7530;DHT22;3806;52.270;10.544;2023-08-20T07:26:33;35.70;48.00
7530;DHT22;3806;52.270;10.544;2023-08-20T07:28:58;35.60;48.30
7530;DHT22;3806;52.270;10.544;2023-08-20T07:31:32;35.40;48.70
7530;DHT22;3806;52.270;10.544;2023-08-20T07:33:59;35.30;49.60
7530;DHT22;3806;52.270;10.544;2023-08-20T07:36:26;35.40;49.40
7530;DHT22;3806;52.270;10.544;2023-08-20T07:38:53;35.30;48.80
7530;DHT22;3806;52.270;10.544;2023-08-20T07:41:19;35.30;49.00
7530;DHT22;3806;52.270;10.544;2023-08-20T07:43:48;35.20;49.70
7530;DHT22;3806;52.270;10.544;2023-08-20T07:46:15;35.10;49.00
7530;DHT22;3806;52.270;10.544;2023-08-20T07:48:40;35.10;49.30
7530;DHT22;3806;52.270;10.544;2023-08-20T07:51:06;35.10;49.70
7530;DHT22;3806;52.270;10.544;2023-08-20T07:53:32;35.00;49.90
7530;DHT22;3806;52.270;10.544;2023-08-20T07:55:59;35.00;50.20
7530;DHT22;3806;52.270;10.544;2023-08-20T07:58:25;35.00;50.40
7530;DHT22;3806;52.270;10.544;2023-08-20T08:00:50;35.00;50.10
7530;DHT22;3806;52.270;10.544;2023-08-20T08:03:16;34.90;49.40
7530;DHT22;3806;52.270;10.544;2023-08-20T08:05:46;34.90;49.60
7530;DHT22;3806;52.270;10.544;2023-08-20T08:08:12;34.90;50.60
7530;DHT22;3806;52.270;10.544;2023-08-20T08:10:37;34.90;50.80
7530;DHT22;3806;52.270;10.544;2023-08-20T08:13:03;35.10;50.90
7530;DHT22;3806;52.270;10.544;2023-08-20T08:15:28;35.20;51.00
7530;DHT22;3806;52.270;10.544;2023-08-20T08:17:54;35.30;50.60
7530;DHT22;3806;52.270;10.544;2023-08-20T08:20:19;35.40;49.70
7530;DHT22;3806;52.270;10.544;2023-08-20T08:22:45;35.50;49.50
7530;DHT22;3806;52.270;10.544;2023-08-20T08:25:10;35.60;49.20
7530;DHT22;3806;52.270;10.544;2023-08-20T08:27:36;35.80;49.00
7530;DHT22;3806;52.270;10.544;2023-08-20T08:30:02;36.00;49.30
7530;DHT22;3806;52.270;10.544;2023-08-20T08:32:28;36.30;49.20
7530;DHT22;3806;52.270;10.544;2023-08-20T08:34:53;36.70;48.00
7530;DHT22;3806;52.270;10.544;2023-08-20T08:37:19;37.10;47.60
7530;DHT22;3806;52.270;10.544;2023-08-20T08:39:44;37.50;46.80
7530;DHT22;3806;52.270;10.544;2023-08-20T08:42:11;37.60;45.90
7530;DHT22;3806;52.270;10.544;2023-08-20T08:44:38;37.60;45.70
7530;DHT22;3806;52.270;10.544;2023-08-20T08:47:04;37.50;45.40
7530;DHT22;3806;52.270;10.544;2023-08-20T08:49:33;37.30;45.50
7530;DHT22;3806;52.270;10.544;2023-08-20T08:51:59;37.20;46.40
7530;DHT22;3806;52.270;10.544;2023-08-20T08:54:26;37.10;45.50
7530;DHT22;3806;52.270;10.544;2023-08-20T08:56:52;36.90;45.10
7530;DHT22;3806;52.270;10.544;2023-08-20T08:59:18;36.80;44.80
7530;DHT22;3806;52.270;10.544;2023-08-20T09:01:44;36.70;44.90
7530;DHT22;3806;52.270;10.544;2023-08-20T09:04:09;36.80;45.20
7530;DHT22;3806;52.270;10.544;2023-08-20T09:06:47;37.00;45.20
7530;DHT22;3806;52.270;10.544;2023-08-20T09:09:13;37.10;44.60
7530;DHT22;3806;52.270;10.544;2023-08-20T09:11:39;37.30;44.10
7530;DHT22;3806;52.270;10.544;2023-08-20T09:14:05;37.50;44.10
7530;DHT22;3806;52.270;10.544;2023-08-20T09:16:31;37.70;44.00
7530;DHT22;3806;52.270;10.544;2023-08-20T09:18:59;37.90;43.90
7530;DHT22;3806;52.270;10.544;2023-08-20T09:21:28;38.00;42.90
7530;DHT22;3806;52.270;10.544;2023-08-20T09:23:55;38.10;42.90
7530;DHT22;3806;52.270;10.544;2023-08-20T09:26:21;38.10;42.00
7530;DHT22;3806;52.270;10.544;2023-08-20T09:28:47;38.20;42.90
7530;DHT22;3806;52.270;10.544;2023-08-20T09:31:13;38.20;42.90
7530;DHT22;3806;52.270;10.544;2023-08-20T09:33:52;38.20;43.30
7530;DHT22;3806;52.270;10.544;2023-08-20T09:36:19;38.50;43.50
7530;DHT22;3806;52.270;10.544;2023-08-20T09:38:44;38.60;42.50
7530;DHT22;3806;52.270;10.544;2023-08-20T09:41:12;38.70;41.30
7530;DHT22;3806;52.270;10.544;2023-08-20T09:43:38;38.60;41.10
7530;DHT22;3806;52.270;10.544;2023-08-20T09:46:05;38.50;40.90
7530;DHT22;3806;52.270;10.544;2023-08-20T09:48:34;38.40;40.20
7530;DHT22;3806;52.270;10.544;2023-08-20T09:51:04;38.30;40.20
7530;DHT22;3806;52.270;10.544;2023-08-20T09:53:44;38.10;40.90
7530;DHT22;3806;52.270;10.544;2023-08-20T09:56:17;38.10;41.10
7530;DHT22;3806;52.270;10.544;2023-08-20T09:58:44;38.10;40.80
7530;DHT22;3806;52.270;10.544;2023-08-20T10:01:11;38.10;40.80
7530;DHT22;3806;52.270;10.544;2023-08-20T10:03:37;38.10;41.00
7530;DHT22;3806;52.270;10.544;2023-08-20T10:06:04;38.00;41.10
7530;DHT22;3806;52.270;10.544;2023-08-20T10:08:30;37.80;41.30
7530;DHT22;3806;52.270;10.544;2023-08-20T10:10:55;37.80;41.40
7530;DHT22;3806;52.270;10.544;2023-08-20T10:13:21;37.80;42.10
7530;DHT22;3806;52.270;10.544;2023-08-20T10:15:47;37.80;42.40
7530;DHT22;3806;52.270;10.544;2023-08-20T10:18:12;37.90;41.60
7530;DHT22;3806;52.270;10.544;2023-08-20T10:20:39;37.90;41.20
7530;DHT22;3806;52.270;10.544;2023-08-20T10:23:06;37.80;40.20
7530;DHT22;3806;52.270;10.544;2023-08-20T10:25:40;37.60;40.20
7530;DHT22;3806;52.270;10.544;2023-08-20T10:28:22;37.40;40.90
7530;DHT22;3806;52.270;10.544;2023-08-20T10:31:16;37.10;40.30
7530;DHT22;3806;52.270;10.544;2023-08-20T10:36:23;36.70;41.80
7530;DHT22;3806;52.270;10.544;2023-08-20T10:38:53;36.70;42.50
7530;DHT22;3806;52.270;10.544;2023-08-20T10:41:27;36.70;42.50
7530;DHT22;3806;52.270;10.544;2023-08-20T10:44:00;36.60;42.00
7530;DHT22;3806;52.270;10.544;2023-08-20T10:46:27;36.60;41.80
7530;DHT22;3806;52.270;10.544;2023-08-20T10:49:00;36.60;42.40
7530;DHT22;3806;52.270;10.544;2023-08-20T10:51:34;36.70;42.00
7530;DHT22;3806;52.270;10.544;2023-08-20T10:59:15;36.50;40.70
7530;DHT22;3806;52.270;10.544;2023-08-20T11:01:48;36.50;41.80
7530;DHT22;3806;52.270;10.544;2023-08-20T11:04:16;36.50;41.40
7530;DHT22;3806;52.270;10.544;2023-08-20T11:06:42;36.40;40.10
7530;DHT22;3806;52.270;10.544;2023-08-20T11:09:08;36.40;39.50
7530;DHT22;3806;52.270;10.544;2023-08-20T11:11:34;36.20;39.20
7530;DHT22;3806;52.270;10.544;2023-08-20T11:14:07;36.10;40.00
7530;DHT22;3806;52.270;10.544;2023-08-20T11:16:34;36.10;41.00
7530;DHT22;3806;52.270;10.544;2023-08-20T11:19:00;36.20;41.10
7530;DHT22;3806;52.270;10.544;2023-08-20T11:21:27;36.30;40.80
7530;DHT22;3806;52.270;10.544;2023-08-20T11:23:53;36.40;40.70
7530;DHT22;3806;52.270;10.544;2023-08-20T11:26:20;36.50;41.00
7530;DHT22;3806;52.270;10.544;2023-08-20T11:28:46;36.40;40.90
7530;DHT22;3806;52.270;10.544;2023-08-20T11:31:12;36.40;40.90
7530;DHT22;3806;52.270;10.544;2023-08-20T11:33:38;36.40;40.60
7530;DHT22;3806;52.270;10.544;2023-08-20T11:36:05;36.40;40.90
7530;DHT22;3806;52.270;10.544;2023-08-20T11:38:31;36.30;41.00
7530;DHT22;3806;52.270;10.544;2023-08-20T11:40:58;36.30;41.40
7530;DHT22;3806;52.270;10.544;2023-08-20T11:43:28;36.30;40.80
7530;DHT22;3806;52.270;10.544;2023-08-20T11:45:54;36.30;40.60
7530;DHT22;3806;52.270;10.544;2023-08-20T11:48:20;36.20;39.80
7530;DHT22;3806;52.270;10.544;2023-08-20T11:50:51;36.00;39.10
7530;DHT22;3806;52.270;10.544;2023-08-20T11:53:21;35.80;40.10
7530;DHT22;3806;52.270;10.544;2023-08-20T11:55:48;35.80;41.10
7530;DHT22;3806;52.270;10.544;2023-08-20T11:58:14;35.90;41.70
7530;DHT22;3806;52.270;10.544;2023-08-20T12:00:40;35.90;41.90
7530;DHT22;3806;52.270;10.544;2023-08-20T12:03:06;36.00;41.80
7530;DHT22;3806;52.270;10.544;2023-08-20T12:05:33;36.10;42.10
7530;DHT22;3806;52.270;10.544;2023-08-20T12:08:03;36.20;42.20
7530;DHT22;3806;52.270;10.544;2023-08-20T12:10:30;36.10;41.50
7530;DHT22;3806;52.270;10.544;2023-08-20T12:12:57;35.90;41.30
7530;DHT22;3806;52.270;10.544;2023-08-20T12:15:24;35.80;41.10
7530;DHT22;3806;52.270;10.544;2023-08-20T12:18:00;35.60;41.20
7530;DHT22;3806;52.270;10.544;2023-08-20T12:20:31;35.40;42.10
7530;DHT22;3806;52.270;10.544;2023-08-20T12:23:02;35.30;43.00
7530;DHT22;3806;52.270;10.544;2023-08-20T12:25:30;35.30;43.40
7530;DHT22;3806;52.270;10.544;2023-08-20T12:27:56;35.30;43.10
7530;DHT22;3806;52.270;10.544;2023-08-20T12:30:21;35.30;43.30
7530;DHT22;3806;52.270;10.544;2023-08-20T12:32:47;35.30;43.50
7530;DHT22;3806;52.270;10.544;2023-08-20T12:35:13;35.40;43.30
7530;DHT22;3806;52.270;10.544;2023-08-20T12:37:38;35.30;42.30
7530;DHT22;3806;52.270;10.544;2023-08-20T12:40:05;35.10;42.70
7530;DHT22;3806;52.270;10.544;2023-08-20T12:42:36;34.90;42.80
7530;DHT22;3806;52.270;10.544;2023-08-20T12:45:02;34.80;43.20
7530;DHT22;3806;52.270;10.544;2023-08-20T12:47:28;34.70;43.50
7530;DHT22;3806;52.270;10.544;2023-08-20T12:49:53;34.70;44.00
7530;DHT22;3806;52.270;10.544;2023-08-20T12:52:19;34.80;44.60
7530;DHT22;3806;52.270;10.544;2023-08-20T12:54:45;34.90;44.20
7530;DHT22;3806;52.270;10.544;2023-08-20T12:57:10;34.90;44.00
7530;DHT22;3806;52.270;10.544;2023-08-20T12:59:36;34.90;44.30
7530;DHT22;3806;52.270;10.544;2023-08-20T13:02:01;34.90;44.40
7530;DHT22;3806;52.270;10.544;2023-08-20T13:04:28;34.90;44.20
7530;DHT22;3806;52.270;10.544;2023-08-20T13:06:53;34.90;44.50
7530;DHT22;3806;52.270;10.544;2023-08-20T13:09:19;34.80;44.90
7530;DHT22;3806;52.270;10.544;2023-08-20T13:11:47;34.70;45.00
7530;DHT22;3806;52.270;10.544;2023-08-20T13:14:13;34.60;45.00
7530;DHT22;3806;52.270;10.544;2023-08-20T13:16:39;34.40;45.30
7530;DHT22;3806;52.270;10.544;2023-08-20T13:19:05;34.30;45.70
7530;DHT22;3806;52.270;10.544;2023-08-20T13:21:30;34.30;45.50
7530;DHT22;3806;52.270;10.544;2023-08-20T13:23:56;34.40;45.20
7530;DHT22;3806;52.270;10.544;2023-08-20T13:26:21;34.20;44.20
7530;DHT22;3806;52.270;10.544;2023-08-20T13:28:48;34.10;44.60
7530;DHT22;3806;52.270;10.544;2023-08-20T13:31:13;33.90;45.10
7530;DHT22;3806;52.270;10.544;2023-08-20T13:33:39;33.80;45.20
7530;DHT22;3806;52.270;10.544;2023-08-20T13:36:05;33.80;45.50
7530;DHT22;3806;52.270;10.544;2023-08-20T13:38:32;33.80;45.50
7530;DHT22;3806;52.270;10.544;2023-08-20T13:40:58;33.90;45.90
7530;DHT22;3806;52.270;10.544;2023-08-20T13:43:23;33.90;46.20
7530;DHT22;3806;52.270;10.544;2023-08-20T13:45:49;33.90;45.10
7530;DHT22;3806;52.270;10.544;2023-08-20T13:48:14;33.80;45.00
7530;DHT22;3806;52.270;10.544;2023-08-20T13:50:40;33.80;45.50
7530;DHT22;3806;52.270;10.544;2023-08-20T13:53:05;33.80;45.90
7530;DHT22;3806;52.270;10.544;2023-08-20T13:55:31;33.80;46.40
7530;DHT22;3806;52.270;10.544;2023-08-20T13:57:57;33.80;46.40
7530;DHT22;3806;52.270;10.544;2023-08-20T14:00:22;33.90;46.40
7530;DHT22;3806;52.270;10.544;2023-08-20T14:02:48;33.90;46.20
7530;DHT22;3806;52.270;10.544;2023-08-20T14:05:13;34.00;46.40
7530;DHT22;3806;52.270;10.544;2023-08-20T14:07:39;34.00;46.80
7530;DHT22;3806;52.270;10.544;2023-08-20T14:10:07;34.00;46.80
7530;DHT22;3806;52.270;10.544;2023-08-20T14:12:33;34.00;45.70
7530;DHT22;3806;52.270;10.544;2023-08-20T14:14:58;34.00;46.10
7530;DHT22;3806;52.270;10.544;2023-08-20T14:17:24;33.90;46.20
7530;DHT22;3806;52.270;10.544;2023-08-20T14:19:49;33.90;46.20
7530;DHT22;3806;52.270;10.544;2023-08-20T14:22:15;33.80;46.10
7530;DHT22;3806;52.270;10.544;2023-08-20T14:24:40;33.70;46.40
7530;DHT22;3806;52.270;10.544;2023-08-20T14:27:06;33.60;46.40
7530;DHT22;3806;52.270;10.544;2023-08-20T14:29:32;33.50;46.30
7530;DHT22;3806;52.270;10.544;2023-08-20T14:31:58;33.40;46.50
7530;DHT22;3806;52.270;10.544;2023-08-20T14:34:23;33.30;46.60
7530;DHT22;3806;52.270;10.544;2023-08-20T14:36:49;33.10;47.10
7530;DHT22;3806;52.270;10.544;2023-08-20T14:39:15;33.10;47.70
7530;DHT22;3806;52.270;10.544;2023-08-20T14:41:40;33.00;47.70
7530;DHT22;3806;52.270;10.544;2023-08-20T14:44:05;33.00;47.60
7530;DHT22;3806;52.270;10.544;2023-08-20T14:46:31;32.80;47.60
7530;DHT22;3806;52.270;10.544;2023-08-20T14:48:57;32.70;47.70
7530;DHT22;3806;52.270;10.544;2023-08-20T14:51:22;32.60;47.90
7530;DHT22;3806;52.270;10.544;2023-08-20T14:53:48;32.50;48.40
7530;DHT22;3806;52.270;10.544;2023-08-20T14:56:13;32.40;48.40
7530;DHT22;3806;52.270;10.544;2023-08-20T14:58:39;32.30;47.90
7530;DHT22;3806;52.270;10.544;2023-08-20T15:01:04;32.10;47.60
7530;DHT22;3806;52.270;10.544;2023-08-20T15:03:30;32.00;48.30
7530;DHT22;3806;52.270;10.544;2023-08-20T15:05:56;32.00;49.00
7530;DHT22;3806;52.270;10.544;2023-08-20T15:08:22;31.90;49.10
7530;DHT22;3806;52.270;10.544;2023-08-20T15:10:58;31.80;48.80
7530;DHT22;3806;52.270;10.544;2023-08-20T15:13:30;31.80;48.60
7530;DHT22;3806;52.270;10.544;2023-08-20T15:15:56;31.70;48.70
7530;DHT22;3806;52.270;10.544;2023-08-20T15:18:23;31.70;49.30
7530;DHT22;3806;52.270;10.544;2023-08-20T15:20:55;31.60;49.20
7530;DHT22;3806;52.270;10.544;2023-08-20T15:23:22;31.50;49.50
7530;DHT22;3806;52.270;10.544;2023-08-20T15:25:47;31.40;50.20
7530;DHT22;3806;52.270;10.544;2023-08-20T15:28:13;31.30;50.60
7530;DHT22;3806;52.270;10.544;2023-08-20T15:30:38;31.20;50.30
7530;DHT22;3806;52.270;10.544;2023-08-20T15:33:04;31.10;49.90
7530;DHT22;3806;52.270;10.544;2023-08-20T15:35:30;31.00;50.20
7530;DHT22;3806;52.270;10.544;2023-08-20T15:37:55;30.90;50.20
7530;DHT22;3806;52.270;10.544;2023-08-20T15:40:21;30.90;50.90
7530;DHT22;3806;52.270;10.544;2023-08-20T15:42:46;30.80;51.10
7530;DHT22;3806;52.270;10.544;2023-08-20T15:45:12;30.70;51.40
7530;DHT22;3806;52.270;10.544;2023-08-20T15:47:37;30.60;51.80
7530;DHT22;3806;52.270;10.544;2023-08-20T15:50:03;30.60;52.70
7530;DHT22;3806;52.270;10.544;2023-08-20T15:52:28;30.60;52.70
7530;DHT22;3806;52.270;10.544;2023-08-20T15:54:54;30.50;52.20
7530;DHT22;3806;52.270;10.544;2023-08-20T15:57:20;30.40;52.40